sensor_id;sensor_type;location;lat;lon;timestamp;P1;durP1;ratioP1;P2;durP2;ratioP2
10884;SDS011;5495;53.252;10.390;2023-03-14T00:01:55;3.27;;;1.57;;
10884;SDS011;5495;53.252;10.390;2023-03-14T00:04:23;5.93;;;1.67;;
10884;SDS011;5495;53.252;10.390;2023-03-14T00:06:50;6.23;;;1.73;;
10884;SDS011;5495;53.252;10.390;2023-03-14T00:09:18;5.30;;;1.80;;
10884;SDS011;5495;53.252;10.390;2023-03-14T00:11:45;8.03;;;2.00;;
10884;SDS011;5495;53.252;10.390;2023-03-14T00:14:12;5.10;;;1.87;;
10884;SDS011;5495;53.252;10.390;2023-03-14T00:16:41;5.80;;;1.60;;
10884;SDS011;5495;53.252;10.390;2023-03-14T00:19:09;3.73;;;1.80;;
10884;SDS011;5495;53.252;10.390;2023-03-14T00:21:37;7.77;;;2.67;;
10884;SDS011;5495;53.252;10.390;2023-03-14T00:24:04;4.97;;;1.90;;
10884;SDS011;5495;53.252;10.390;2023-03-14T00:26:32;4.73;;;1.90;;
10884;SDS011;5495;53.252;10.390;2023-03-14T00:28:59;9.00;;;2.03;;
10884;SDS011;5495;53.252;10.390;2023-03-14T00:31:27;3.20;;;1.53;;
10884;SDS011;5495;53.252;10.390;2023-03-14T00:34:03;5.93;;;2.10;;
10884;SDS011;5495;53.252;10.390;2023-03-14T00:36:31;4.53;;;1.60;;
10884;SDS011;5495;53.252;10.390;2023-03-14T00:38:59;4.70;;;1.90;;
10884;SDS011;5495;53.252;10.390;2023-03-14T00:41:27;3.97;;;1.97;;
10884;SDS011;5495;53.252;10.390;2023-03-14T00:43:54;9.00;;;2.57;;
10884;SDS011;5495;53.252;10.390;2023-03-14T00:46:22;4.77;;;2.10;;
10884;SDS011;5495;53.252;10.390;2023-03-14T00:48:49;8.00;;;2.10;;
10884;SDS011;5495;53.252;10.390;2023-03-14T00:51:17;7.47;;;2.00;;
10884;SDS011;5495;53.252;10.390;2023-03-14T00:53:45;6.83;;;1.90;;
10884;SDS011;5495;53.252;10.390;2023-03-14T00:56:13;5.57;;;1.70;;
10884;SDS011;5495;53.252;10.390;2023-03-14T00:58:46;4.97;;;1.97;;
10884;SDS011;5495;53.252;10.390;2023-03-14T01:01:14;6.10;;;2.27;;
10884;SDS011;5495;53.252;10.390;2023-03-14T01:03:44;5.93;;;2.17;;
10884;SDS011;5495;53.252;10.390;2023-03-14T01:06:13;4.73;;;1.77;;
10884;SDS011;5495;53.252;10.390;2023-03-14T01:08:41;5.10;;;1.67;;
10884;SDS011;5495;53.252;10.390;2023-03-14T01:11:11;7.50;;;2.23;;
10884;SDS011;5495;53.252;10.390;2023-03-14T01:13:40;2.80;;;2.00;;
10884;SDS011;5495;53.252;10.390;2023-03-14T01:16:09;5.43;;;1.80;;
10884;SDS011;5495;53.252;10.390;2023-03-14T01:18:37;3.67;;;1.80;;
10884;SDS011;5495;53.252;10.390;2023-03-14T01:21:09;5.80;;;1.90;;
10884;SDS011;5495;53.252;10.390;2023-03-14T01:23:38;4.13;;;1.93;;
10884;SDS011;5495;53.252;10.390;2023-03-14T01:26:08;4.27;;;2.00;;
10884;SDS011;5495;53.252;10.390;2023-03-14T01:28:39;6.20;;;1.93;;
10884;SDS011;5495;53.252;10.390;2023-03-14T01:31:08;7.80;;;1.90;;
10884;SDS011;5495;53.252;10.390;2023-03-14T01:33:36;2.83;;;1.57;;
10884;SDS011;5495;53.252;10.390;2023-03-14T01:36:04;9.13;;;1.90;;
10884;SDS011;5495;53.252;10.390;2023-03-14T01:38:33;7.53;;;2.03;;
10884;SDS011;5495;53.252;10.390;2023-03-14T01:41:05;6.33;;;2.20;;
10884;SDS011;5495;53.252;10.390;2023-03-14T01:43:35;6.20;;;1.97;;
10884;SDS011;5495;53.252;10.390;2023-03-14T01:49:04;6.03;;;2.20;;
10884;SDS011;5495;53.252;10.390;2023-03-14T01:51:41;4.17;;;1.73;;
10884;SDS011;5495;53.252;10.390;2023-03-14T01:54:14;7.20;;;1.90;;
10884;SDS011;5495;53.252;10.390;2023-03-14T01:56:48;4.17;;;1.60;;
10884;SDS011;5495;53.252;10.390;2023-03-14T01:59:20;6.93;;;1.97;;
10884;SDS011;5495;53.252;10.390;2023-03-14T02:01:48;5.10;;;1.83;;
10884;SDS011;5495;53.252;10.390;2023-03-14T02:04:17;5.20;;;1.83;;
10884;SDS011;5495;53.252;10.390;2023-03-14T02:06:50;4.50;;;2.00;;
10884;SDS011;5495;53.252;10.390;2023-03-14T02:09:22;5.43;;;1.90;;
10884;SDS011;5495;53.252;10.390;2023-03-14T02:11:50;4.57;;;1.77;;
10884;SDS011;5495;53.252;10.390;2023-03-14T02:14:24;6.27;;;2.00;;
10884;SDS011;5495;53.252;10.390;2023-03-14T02:16:58;6.50;;;2.10;;
10884;SDS011;5495;53.252;10.390;2023-03-14T02:19:29;3.43;;;2.20;;
10884;SDS011;5495;53.252;10.390;2023-03-14T02:22:07;4.20;;;2.00;;
10884;SDS011;5495;53.252;10.390;2023-03-14T02:24:40;6.00;;;2.40;;
10884;SDS011;5495;53.252;10.390;2023-03-14T02:27:15;7.80;;;2.00;;
10884;SDS011;5495;53.252;10.390;2023-03-14T02:29:48;4.03;;;1.90;;
10884;SDS011;5495;53.252;10.390;2023-03-14T02:32:20;4.47;;;1.73;;
10884;SDS011;5495;53.252;10.390;2023-03-14T02:34:49;7.63;;;2.00;;
10884;SDS011;5495;53.252;10.390;2023-03-14T02:37:20;2.50;;;1.70;;
10884;SDS011;5495;53.252;10.390;2023-03-14T02:39:50;2.87;;;1.30;;
10884;SDS011;5495;53.252;10.390;2023-03-14T02:42:20;10.37;;;1.90;;
10884;SDS011;5495;53.252;10.390;2023-03-14T02:44:51;3.80;;;1.70;;
10884;SDS011;5495;53.252;10.390;2023-03-14T02:47:22;2.80;;;1.50;;
10884;SDS011;5495;53.252;10.390;2023-03-14T02:49:53;4.43;;;1.73;;
10884;SDS011;5495;53.252;10.390;2023-03-14T02:52:26;4.33;;;1.70;;
10884;SDS011;5495;53.252;10.390;2023-03-14T02:54:54;8.13;;;2.43;;
10884;SDS011;5495;53.252;10.390;2023-03-14T02:57:23;7.70;;;2.47;;
10884;SDS011;5495;53.252;10.390;2023-03-14T02:59:51;7.57;;;2.40;;
10884;SDS011;5495;53.252;10.390;2023-03-14T03:02:18;5.07;;;2.40;;
10884;SDS011;5495;53.252;10.390;2023-03-14T03:04:45;6.90;;;2.23;;
10884;SDS011;5495;53.252;10.390;2023-03-14T03:07:12;3.63;;;2.13;;
10884;SDS011;5495;53.252;10.390;2023-03-14T03:09:40;3.97;;;1.83;;
10884;SDS011;5495;53.252;10.390;2023-03-14T03:12:07;6.90;;;2.20;;
10884;SDS011;5495;53.252;10.390;2023-03-14T03:14:36;4.70;;;2.00;;
10884;SDS011;5495;53.252;10.390;2023-03-14T03:17:05;5.60;;;2.33;;
10884;SDS011;5495;53.252;10.390;2023-03-14T03:19:33;8.60;;;2.43;;
10884;SDS011;5495;53.252;10.390;2023-03-14T03:22:00;4.77;;;2.50;;
10884;SDS011;5495;53.252;10.390;2023-03-14T03:24:29;4.47;;;1.83;;
10884;SDS011;5495;53.252;10.390;2023-03-14T03:26:59;8.90;;;2.30;;
10884;SDS011;5495;53.252;10.390;2023-03-14T03:29:27;5.17;;;2.10;;
10884;SDS011;5495;53.252;10.390;2023-03-14T03:32:00;6.70;;;2.23;;
10884;SDS011;5495;53.252;10.390;2023-03-14T03:34:30;6.60;;;2.10;;
10884;SDS011;5495;53.252;10.390;2023-03-14T03:37:04;3.83;;;1.60;;
10884;SDS011;5495;53.252;10.390;2023-03-14T03:39:33;3.80;;;1.80;;
10884;SDS011;5495;53.252;10.390;2023-03-14T03:42:03;5.27;;;2.03;;
10884;SDS011;5495;53.252;10.390;2023-03-14T03:44:35;4.80;;;2.10;;
10884;SDS011;5495;53.252;10.390;2023-03-14T03:47:04;7.00;;;2.20;;
10884;SDS011;5495;53.252;10.390;2023-03-14T03:49:32;5.07;;;1.73;;
10884;SDS011;5495;53.252;10.390;2023-03-14T03:52:02;5.37;;;1.80;;
10884;SDS011;5495;53.252;10.390;2023-03-14T03:54:29;6.33;;;1.90;;
10884;SDS011;5495;53.252;10.390;2023-03-14T03:56:56;4.77;;;1.67;;
10884;SDS011;5495;53.252;10.390;2023-03-14T03:59:26;5.30;;;1.77;;
10884;SDS011;5495;53.252;10.390;2023-03-14T04:01:53;6.40;;;1.97;;
10884;SDS011;5495;53.252;10.390;2023-03-14T04:04:22;5.23;;;1.60;;
10884;SDS011;5495;53.252;10.390;2023-03-14T04:06:51;6.67;;;1.67;;
10884;SDS011;5495;53.252;10.390;2023-03-14T04:09:19;5.83;;;1.60;;
10884;SDS011;5495;53.252;10.390;2023-03-14T04:11:55;9.20;;;1.97;;
10884;SDS011;5495;53.252;10.390;2023-03-14T04:14:29;6.77;;;2.47;;
10884;SDS011;5495;53.252;10.390;2023-03-14T04:16:56;4.50;;;1.80;;
10884;SDS011;5495;53.252;10.390;2023-03-14T04:19:25;2.87;;;1.50;;
10884;SDS011;5495;53.252;10.390;2023-03-14T04:21:52;6.80;;;1.60;;
10884;SDS011;5495;53.252;10.390;2023-03-14T04:24:26;6.87;;;1.80;;
10884;SDS011;5495;53.252;10.390;2023-03-14T04:26:54;8.07;;;1.77;;
10884;SDS011;5495;53.252;10.390;2023-03-14T04:29:22;7.33;;;1.97;;
10884;SDS011;5495;53.252;10.390;2023-03-14T04:31:53;3.63;;;1.53;;
10884;SDS011;5495;53.252;10.390;2023-03-14T04:34:23;7.23;;;1.87;;
10884;SDS011;5495;53.252;10.390;2023-03-14T04:36:51;11.20;;;2.00;;
10884;SDS011;5495;53.252;10.390;2023-03-14T04:39:19;7.00;;;1.90;;
10884;SDS011;5495;53.252;10.390;2023-03-14T04:41:49;7.17;;;2.23;;
10884;SDS011;5495;53.252;10.390;2023-03-14T04:44:16;4.53;;;1.50;;
10884;SDS011;5495;53.252;10.390;2023-03-14T04:46:46;3.33;;;1.40;;
10884;SDS011;5495;53.252;10.390;2023-03-14T04:49:19;3.90;;;1.40;;
10884;SDS011;5495;53.252;10.390;2023-03-14T04:51:53;3.70;;;1.50;;
10884;SDS011;5495;53.252;10.390;2023-03-14T04:54:28;4.93;;;1.57;;
10884;SDS011;5495;53.252;10.390;2023-03-14T04:56:57;2.37;;;1.80;;
10884;SDS011;5495;53.252;10.390;2023-03-14T04:59:27;4.20;;;1.60;;
10884;SDS011;5495;53.252;10.390;2023-03-14T05:01:54;5.67;;;1.17;;
10884;SDS011;5495;53.252;10.390;2023-03-14T05:04:22;2.63;;;1.13;;
10884;SDS011;5495;53.252;10.390;2023-03-14T05:06:56;4.53;;;1.23;;
10884;SDS011;5495;53.252;10.390;2023-03-14T05:09:23;2.63;;;1.20;;
10884;SDS011;5495;53.252;10.390;2023-03-14T05:11:51;1.93;;;0.97;;
10884;SDS011;5495;53.252;10.390;2023-03-14T05:14:18;3.27;;;1.10;;
10884;SDS011;5495;53.252;10.390;2023-03-14T05:16:45;3.93;;;1.30;;
10884;SDS011;5495;53.252;10.390;2023-03-14T05:19:13;2.47;;;1.00;;
10884;SDS011;5495;53.252;10.390;2023-03-14T05:21:40;1.20;;;0.80;;
10884;SDS011;5495;53.252;10.390;2023-03-14T05:24:09;2.60;;;1.00;;
10884;SDS011;5495;53.252;10.390;2023-03-14T05:26:38;2.33;;;0.93;;
10884;SDS011;5495;53.252;10.390;2023-03-14T05:29:15;2.77;;;1.00;;
10884;SDS011;5495;53.252;10.390;2023-03-14T05:31:42;1.93;;;1.00;;
10884;SDS011;5495;53.252;10.390;2023-03-14T05:34:09;2.40;;;1.00;;
10884;SDS011;5495;53.252;10.390;2023-03-14T05:36:40;1.70;;;1.10;;
10884;SDS011;5495;53.252;10.390;2023-03-14T05:39:09;5.67;;;1.20;;
10884;SDS011;5495;53.252;10.390;2023-03-14T05:41:36;1.97;;;1.03;;
10884;SDS011;5495;53.252;10.390;2023-03-14T05:44:04;2.07;;;1.00;;
10884;SDS011;5495;53.252;10.390;2023-03-14T05:46:31;2.93;;;1.40;;
10884;SDS011;5495;53.252;10.390;2023-03-14T05:48:59;1.80;;;1.10;;
10884;SDS011;5495;53.252;10.390;2023-03-14T05:51:26;2.77;;;1.10;;
10884;SDS011;5495;53.252;10.390;2023-03-14T05:53:54;3.87;;;1.20;;
10884;SDS011;5495;53.252;10.390;2023-03-14T05:56:25;1.73;;;1.27;;
10884;SDS011;5495;53.252;10.390;2023-03-14T05:58:52;2.83;;;1.40;;
10884;SDS011;5495;53.252;10.390;2023-03-14T06:01:19;5.60;;;1.30;;
10884;SDS011;5495;53.252;10.390;2023-03-14T06:03:47;1.90;;;1.13;;
10884;SDS011;5495;53.252;10.390;2023-03-14T06:06:21;1.70;;;1.10;;
10884;SDS011;5495;53.252;10.390;2023-03-14T06:08:48;3.57;;;1.20;;
10884;SDS011;5495;53.252;10.390;2023-03-14T06:11:15;1.93;;;1.20;;
10884;SDS011;5495;53.252;10.390;2023-03-14T06:13:44;3.17;;;1.43;;
10884;SDS011;5495;53.252;10.390;2023-03-14T06:16:17;2.73;;;1.13;;
10884;SDS011;5495;53.252;10.390;2023-03-14T06:18:52;1.70;;;1.20;;
10884;SDS011;5495;53.252;10.390;2023-03-14T06:21:24;1.77;;;1.13;;
10884;SDS011;5495;53.252;10.390;2023-03-14T06:24:20;1.90;;;1.10;;
10884;SDS011;5495;53.252;10.390;2023-03-14T06:26:50;2.33;;;1.20;;
10884;SDS011;5495;53.252;10.390;2023-03-14T06:29:21;2.87;;;1.17;;
10884;SDS011;5495;53.252;10.390;2023-03-14T06:31:50;1.63;;;0.87;;
10884;SDS011;5495;53.252;10.390;2023-03-14T06:34:20;2.60;;;1.10;;
10884;SDS011;5495;53.252;10.390;2023-03-14T06:36:48;2.60;;;1.10;;
10884;SDS011;5495;53.252;10.390;2023-03-14T06:39:19;2.83;;;1.00;;
10884;SDS011;5495;53.252;10.390;2023-03-14T06:41:48;1.27;;;1.00;;
10884;SDS011;5495;53.252;10.390;2023-03-14T06:44:18;1.83;;;1.10;;
10884;SDS011;5495;53.252;10.390;2023-03-14T06:46:53;1.00;;;0.90;;
10884;SDS011;5495;53.252;10.390;2023-03-14T06:49:28;2.67;;;1.00;;
10884;SDS011;5495;53.252;10.390;2023-03-14T06:51:55;2.33;;;0.77;;
10884;SDS011;5495;53.252;10.390;2023-03-14T06:54:25;2.30;;;1.07;;
10884;SDS011;5495;53.252;10.390;2023-03-14T06:56:53;2.03;;;0.87;;
10884;SDS011;5495;53.252;10.390;2023-03-14T06:59:25;3.27;;;1.00;;
10884;SDS011;5495;53.252;10.390;2023-03-14T07:01:55;4.67;;;0.93;;
10884;SDS011;5495;53.252;10.390;2023-03-14T07:04:24;1.93;;;0.97;;
10884;SDS011;5495;53.252;10.390;2023-03-14T07:06:53;1.00;;;0.90;;
10884;SDS011;5495;53.252;10.390;2023-03-14T07:09:25;0.70;;;0.70;;
10884;SDS011;5495;53.252;10.390;2023-03-14T07:11:53;1.10;;;0.90;;
10884;SDS011;5495;53.252;10.390;2023-03-14T07:14:26;3.67;;;1.10;;
10884;SDS011;5495;53.252;10.390;2023-03-14T07:16:55;1.57;;;1.00;;
10884;SDS011;5495;53.252;10.390;2023-03-14T07:19:23;1.10;;;1.00;;
10884;SDS011;5495;53.252;10.390;2023-03-14T07:21:59;2.07;;;1.30;;
10884;SDS011;5495;53.252;10.390;2023-03-14T07:24:27;2.07;;;1.00;;
10884;SDS011;5495;53.252;10.390;2023-03-14T07:26:55;1.50;;;1.13;;
10884;SDS011;5495;53.252;10.390;2023-03-14T07:29:25;2.47;;;1.17;;
10884;SDS011;5495;53.252;10.390;2023-03-14T07:31:53;2.10;;;1.00;;
10884;SDS011;5495;53.252;10.390;2023-03-14T07:34:20;4.30;;;1.10;;
10884;SDS011;5495;53.252;10.390;2023-03-14T07:36:48;3.00;;;1.30;;
10884;SDS011;5495;53.252;10.390;2023-03-14T07:42:08;1.40;;;1.30;;
10884;SDS011;5495;53.252;10.390;2023-03-14T07:44:37;1.87;;;1.20;;
10884;SDS011;5495;53.252;10.390;2023-03-14T07:47:06;3.37;;;1.53;;
10884;SDS011;5495;53.252;10.390;2023-03-14T07:49:35;2.67;;;1.20;;
10884;SDS011;5495;53.252;10.390;2023-03-14T07:52:03;1.50;;;1.37;;
10884;SDS011;5495;53.252;10.390;2023-03-14T07:54:33;2.20;;;1.13;;
10884;SDS011;5495;53.252;10.390;2023-03-14T07:57:11;2.80;;;1.10;;
10884;SDS011;5495;53.252;10.390;2023-03-14T08:00:08;2.00;;;1.23;;
10884;SDS011;5495;53.252;10.390;2023-03-14T08:02:38;1.33;;;1.17;;
10884;SDS011;5495;53.252;10.390;2023-03-14T08:05:05;2.60;;;1.30;;
10884;SDS011;5495;53.252;10.390;2023-03-14T08:07:36;2.87;;;1.30;;
10884;SDS011;5495;53.252;10.390;2023-03-14T08:10:06;2.27;;;1.50;;
10884;SDS011;5495;53.252;10.390;2023-03-14T08:12:45;1.03;;;0.63;;
10884;SDS011;5495;53.252;10.390;2023-03-14T08:18:42;1.77;;;1.50;;
10884;SDS011;5495;53.252;10.390;2023-03-14T08:21:13;1.13;;;1.03;;
10884;SDS011;5495;53.252;10.390;2023-03-14T08:23:53;1.37;;;1.27;;
10884;SDS011;5495;53.252;10.390;2023-03-14T08:26:21;5.13;;;1.63;;
10884;SDS011;5495;53.252;10.390;2023-03-14T08:28:48;1.43;;;1.30;;
10884;SDS011;5495;53.252;10.390;2023-03-14T08:31:26;4.43;;;1.40;;
10884;SDS011;5495;53.252;10.390;2023-03-14T08:33:54;3.93;;;1.90;;
10884;SDS011;5495;53.252;10.390;2023-03-14T08:36:23;2.50;;;1.67;;
10884;SDS011;5495;53.252;10.390;2023-03-14T08:38:51;2.97;;;1.30;;
10884;SDS011;5495;53.252;10.390;2023-03-14T08:41:22;4.63;;;1.80;;
10884;SDS011;5495;53.252;10.390;2023-03-14T08:44:21;1.90;;;1.27;;
10884;SDS011;5495;53.252;10.390;2023-03-14T08:46:51;1.70;;;1.30;;
10884;SDS011;5495;53.252;10.390;2023-03-14T08:49:23;1.13;;;1.03;;
10884;SDS011;5495;53.252;10.390;2023-03-14T08:51:57;1.63;;;1.10;;
10884;SDS011;5495;53.252;10.390;2023-03-14T08:54:25;2.63;;;1.43;;
10884;SDS011;5495;53.252;10.390;2023-03-14T08:56:53;1.30;;;1.00;;
10884;SDS011;5495;53.252;10.390;2023-03-14T08:59:32;2.30;;;1.30;;
10884;SDS011;5495;53.252;10.390;2023-03-14T09:02:08;1.43;;;1.13;;
10884;SDS011;5495;53.252;10.390;2023-03-14T09:04:37;5.87;;;1.37;;
10884;SDS011;5495;53.252;10.390;2023-03-14T09:07:18;6.73;;;1.40;;
10884;SDS011;5495;53.252;10.390;2023-03-14T09:10:17;2.57;;;1.43;;
10884;SDS011;5495;53.252;10.390;2023-03-14T09:13:01;1.30;;;1.10;;
10884;SDS011;5495;53.252;10.390;2023-03-14T09:15:33;2.30;;;1.20;;
10884;SDS011;5495;53.252;10.390;2023-03-14T09:18:23;0.90;;;0.73;;
10884;SDS011;5495;53.252;10.390;2023-03-14T09:20:50;1.00;;;0.90;;
10884;SDS011;5495;53.252;10.390;2023-03-14T09:23:19;3.17;;;1.13;;
10884;SDS011;5495;53.252;10.390;2023-03-14T09:25:47;1.67;;;0.70;;
10884;SDS011;5495;53.252;10.390;2023-03-14T09:28:14;0.97;;;0.80;;
10884;SDS011;5495;53.252;10.390;2023-03-14T09:30:49;0.80;;;0.80;;
10884;SDS011;5495;53.252;10.390;2023-03-14T09:33:26;1.83;;;0.80;;
10884;SDS011;5495;53.252;10.390;2023-03-14T09:36:05;1.43;;;0.73;;
10884;SDS011;5495;53.252;10.390;2023-03-14T09:38:38;0.87;;;0.80;;
10884;SDS011;5495;53.252;10.390;2023-03-14T09:41:15;1.00;;;0.80;;
10884;SDS011;5495;53.252;10.390;2023-03-14T09:43:50;0.63;;;0.57;;
10884;SDS011;5495;53.252;10.390;2023-03-14T09:46:39;0.60;;;0.60;;
10884;SDS011;5495;53.252;10.390;2023-03-14T09:49:13;0.60;;;0.60;;
10884;SDS011;5495;53.252;10.390;2023-03-14T09:51:46;1.50;;;0.57;;
10884;SDS011;5495;53.252;10.390;2023-03-14T09:54:19;0.80;;;0.53;;
10884;SDS011;5495;53.252;10.390;2023-03-14T09:57:09;1.30;;;0.60;;
10884;SDS011;5495;53.252;10.390;2023-03-14T09:59:40;0.93;;;0.60;;
10884;SDS011;5495;53.252;10.390;2023-03-14T10:02:14;1.47;;;0.80;;
10884;SDS011;5495;53.252;10.390;2023-03-14T10:04:47;1.07;;;0.60;;
10884;SDS011;5495;53.252;10.390;2023-03-14T10:07:16;0.60;;;0.50;;
10884;SDS011;5495;53.252;10.390;2023-03-14T10:09:47;3.67;;;0.60;;
10884;SDS011;5495;53.252;10.390;2023-03-14T10:12:16;1.00;;;0.73;;
10884;SDS011;5495;53.252;10.390;2023-03-14T10:14:45;1.90;;;0.70;;
10884;SDS011;5495;53.252;10.390;2023-03-14T10:17:20;1.10;;;0.67;;
10884;SDS011;5495;53.252;10.390;2023-03-14T10:19:54;0.60;;;0.50;;
10884;SDS011;5495;53.252;10.390;2023-03-14T10:22:23;2.37;;;0.53;;
10884;SDS011;5495;53.252;10.390;2023-03-14T10:24:53;1.00;;;0.60;;
10884;SDS011;5495;53.252;10.390;2023-03-14T10:27:27;1.17;;;0.40;;
10884;SDS011;5495;53.252;10.390;2023-03-14T10:29:56;0.70;;;0.57;;
10884;SDS011;5495;53.252;10.390;2023-03-14T10:32:31;1.43;;;0.60;;
10884;SDS011;5495;53.252;10.390;2023-03-14T10:35:06;1.10;;;0.50;;
10884;SDS011;5495;53.252;10.390;2023-03-14T10:37:48;1.00;;;0.50;;
10884;SDS011;5495;53.252;10.390;2023-03-14T10:40:20;0.63;;;0.50;;
10884;SDS011;5495;53.252;10.390;2023-03-14T10:42:51;0.63;;;0.50;;
10884;SDS011;5495;53.252;10.390;2023-03-14T10:45:28;0.50;;;0.50;;
10884;SDS011;5495;53.252;10.390;2023-03-14T10:47:59;0.50;;;0.47;;
10884;SDS011;5495;53.252;10.390;2023-03-14T10:50:49;1.13;;;0.57;;
10884;SDS011;5495;53.252;10.390;2023-03-14T10:53:21;1.43;;;0.40;;
10884;SDS011;5495;53.252;10.390;2023-03-14T10:56:03;0.63;;;0.53;;
10884;SDS011;5495;53.252;10.390;2023-03-14T10:58:39;1.10;;;0.50;;
10884;SDS011;5495;53.252;10.390;2023-03-14T11:01:17;1.10;;;0.40;;
10884;SDS011;5495;53.252;10.390;2023-03-14T11:04:25;0.60;;;0.43;;
10884;SDS011;5495;53.252;10.390;2023-03-14T11:07:09;0.70;;;0.50;;
10884;SDS011;5495;53.252;10.390;2023-03-14T11:09:45;1.23;;;0.50;;
10884;SDS011;5495;53.252;10.390;2023-03-14T11:12:32;0.50;;;0.50;;
10884;SDS011;5495;53.252;10.390;2023-03-14T11:15:11;1.23;;;0.60;;
10884;SDS011;5495;53.252;10.390;2023-03-14T11:17:46;1.53;;;0.87;;
10884;SDS011;5495;53.252;10.390;2023-03-14T11:20:35;0.77;;;0.73;;
10884;SDS011;5495;53.252;10.390;2023-03-14T11:23:14;1.00;;;1.00;;
10884;SDS011;5495;53.252;10.390;2023-03-14T11:25:48;1.23;;;0.90;;
10884;SDS011;5495;53.252;10.390;2023-03-14T11:28:26;1.57;;;1.10;;
10884;SDS011;5495;53.252;10.390;2023-03-14T11:31:10;1.63;;;1.30;;
10884;SDS011;5495;53.252;10.390;2023-03-14T11:33:46;1.80;;;1.40;;
10884;SDS011;5495;53.252;10.390;2023-03-14T11:36:23;1.80;;;1.70;;
10884;SDS011;5495;53.252;10.390;2023-03-14T11:38:58;1.07;;;1.00;;
10884;SDS011;5495;53.252;10.390;2023-03-14T11:41:27;0.50;;;0.50;;
10884;SDS011;5495;53.252;10.390;2023-03-14T11:44:24;0.63;;;0.47;;
10884;SDS011;5495;53.252;10.390;2023-03-14T11:46:59;0.50;;;0.50;;
10884;SDS011;5495;53.252;10.390;2023-03-14T11:49:48;0.60;;;0.40;;
10884;SDS011;5495;53.252;10.390;2023-03-14T11:52:30;0.60;;;0.30;;
10884;SDS011;5495;53.252;10.390;2023-03-14T11:55:04;1.13;;;0.40;;
10884;SDS011;5495;53.252;10.390;2023-03-14T11:57:43;2.60;;;0.40;;
10884;SDS011;5495;53.252;10.390;2023-03-14T12:00:14;0.60;;;0.33;;
10884;SDS011;5495;53.252;10.390;2023-03-14T12:02:48;0.40;;;0.30;;
10884;SDS011;5495;53.252;10.390;2023-03-14T12:05:43;0.63;;;0.30;;
10884;SDS011;5495;53.252;10.390;2023-03-14T12:11:20;0.90;;;0.40;;
10884;SDS011;5495;53.252;10.390;2023-03-14T12:13:58;0.53;;;0.47;;
10884;SDS011;5495;53.252;10.390;2023-03-14T12:16:35;0.90;;;0.50;;
10884;SDS011;5495;53.252;10.390;2023-03-14T12:19:14;173.13;;;48.13;;
10884;SDS011;5495;53.252;10.390;2023-03-14T12:21:56;149.30;;;35.70;;
10884;SDS011;5495;53.252;10.390;2023-03-14T12:24:35;1.17;;;0.60;;
10884;SDS011;5495;53.252;10.390;2023-03-14T12:30:37;129.57;;;95.40;;
10884;SDS011;5495;53.252;10.390;2023-03-14T12:36:12;24.13;;;22.90;;
10884;SDS011;5495;53.252;10.390;2023-03-14T12:39:25;26.20;;;24.17;;
10884;SDS011;5495;53.252;10.390;2023-03-14T12:42:04;73.80;;;68.97;;
10884;SDS011;5495;53.252;10.390;2023-03-14T12:44:47;673.73;;;106.60;;
10884;SDS011;5495;53.252;10.390;2023-03-14T12:50:19;22.53;;;20.87;;
10884;SDS011;5495;53.252;10.390;2023-03-14T12:56:20;2.40;;;0.80;;
10884;SDS011;5495;53.252;10.390;2023-03-14T12:59:02;50.17;;;32.17;;
10884;SDS011;5495;53.252;10.390;2023-03-14T13:05:03;1.40;;;0.53;;
10884;SDS011;5495;53.252;10.390;2023-03-14T13:10:39;2.67;;;0.63;;
10884;SDS011;5495;53.252;10.390;2023-03-14T13:13:21;1.40;;;0.73;;
10884;SDS011;5495;53.252;10.390;2023-03-14T13:16:09;1.13;;;1.00;;
10884;SDS011;5495;53.252;10.390;2023-03-14T13:19:00;1.30;;;1.00;;
10884;SDS011;5495;53.252;10.390;2023-03-14T13:21:37;3.00;;;0.60;;
10884;SDS011;5495;53.252;10.390;2023-03-14T13:27:31;110.57;;;86.57;;
10884;SDS011;5495;53.252;10.390;2023-03-14T13:30:05;283.53;;;266.27;;
10884;SDS011;5495;53.252;10.390;2023-03-14T13:32:57;173.47;;;162.30;;
10884;SDS011;5495;53.252;10.390;2023-03-14T13:35:40;53.90;;;50.73;;
10884;SDS011;5495;53.252;10.390;2023-03-14T13:38:17;100.00;;;93.97;;
10884;SDS011;5495;53.252;10.390;2023-03-14T13:40:48;9.97;;;9.37;;
10884;SDS011;5495;53.252;10.390;2023-03-14T13:43:27;6.37;;;5.73;;
10884;SDS011;5495;53.252;10.390;2023-03-14T13:46:12;14.17;;;13.23;;
10884;SDS011;5495;53.252;10.390;2023-03-14T13:48:48;5.93;;;5.53;;
10884;SDS011;5495;53.252;10.390;2023-03-14T13:54:38;9.97;;;9.27;;
10884;SDS011;5495;53.252;10.390;2023-03-14T13:57:22;19.33;;;17.87;;
10884;SDS011;5495;53.252;10.390;2023-03-14T14:00:01;31.67;;;29.97;;
10884;SDS011;5495;53.252;10.390;2023-03-14T14:02:42;27.03;;;25.23;;
10884;SDS011;5495;53.252;10.390;2023-03-14T14:05:14;18.80;;;17.23;;
10884;SDS011;5495;53.252;10.390;2023-03-14T14:10:32;19.57;;;18.40;;
10884;SDS011;5495;53.252;10.390;2023-03-14T14:13:08;36.63;;;19.03;;
10884;SDS011;5495;53.252;10.390;2023-03-14T14:15:44;11.50;;;10.47;;
10884;SDS011;5495;53.252;10.390;2023-03-14T14:21:25;5.20;;;4.80;;
10884;SDS011;5495;53.252;10.390;2023-03-14T14:23:58;5.73;;;5.17;;
10884;SDS011;5495;53.252;10.390;2023-03-14T14:26:49;5.93;;;5.50;;
10884;SDS011;5495;53.252;10.390;2023-03-14T14:29:26;2.53;;;2.33;;
10884;SDS011;5495;53.252;10.390;2023-03-14T14:32:19;4.93;;;2.23;;
10884;SDS011;5495;53.252;10.390;2023-03-14T14:35:30;3.67;;;1.93;;
10884;SDS011;5495;53.252;10.390;2023-03-14T14:42:03;5.63;;;3.10;;
10884;SDS011;5495;53.252;10.390;2023-03-14T14:44:49;6.73;;;2.50;;
10884;SDS011;5495;53.252;10.390;2023-03-14T14:47:27;3.53;;;1.90;;
10884;SDS011;5495;53.252;10.390;2023-03-14T14:53:20;4.73;;;1.30;;
10884;SDS011;5495;53.252;10.390;2023-03-14T14:56:25;6.10;;;1.37;;
10884;SDS011;5495;53.252;10.390;2023-03-14T15:05:13;4.80;;;1.33;;
10884;SDS011;5495;53.252;10.390;2023-03-14T15:07:49;3.07;;;1.23;;
10884;SDS011;5495;53.252;10.390;2023-03-14T15:10:23;2.60;;;1.23;;
10884;SDS011;5495;53.252;10.390;2023-03-14T15:13:05;1.60;;;1.20;;
10884;SDS011;5495;53.252;10.390;2023-03-14T15:19:42;3.97;;;2.07;;
10884;SDS011;5495;53.252;10.390;2023-03-14T15:22:38;4.10;;;1.23;;
10884;SDS011;5495;53.252;10.390;2023-03-14T15:28:57;2.13;;;1.40;;
10884;SDS011;5495;53.252;10.390;2023-03-14T15:31:37;3.70;;;1.57;;
10884;SDS011;5495;53.252;10.390;2023-03-14T15:44:49;3.43;;;1.70;;
10884;SDS011;5495;53.252;10.390;2023-03-14T15:50:55;5.97;;;5.30;;
10884;SDS011;5495;53.252;10.390;2023-03-14T15:56:30;4.50;;;4.20;;
10884;SDS011;5495;53.252;10.390;2023-03-14T16:02:38;1999.90;;;999.90;;
10884;SDS011;5495;53.252;10.390;2023-03-14T16:05:12;1999.90;;;999.90;;
10884;SDS011;5495;53.252;10.390;2023-03-14T16:07:46;1999.90;;;999.90;;
10884;SDS011;5495;53.252;10.390;2023-03-14T16:10:30;1999.90;;;999.90;;
10884;SDS011;5495;53.252;10.390;2023-03-14T16:13:26;1999.90;;;999.90;;
10884;SDS011;5495;53.252;10.390;2023-03-14T16:16:19;1999.90;;;999.90;;
10884;SDS011;5495;53.252;10.390;2023-03-14T16:22:18;1999.90;;;999.90;;
10884;SDS011;5495;53.252;10.390;2023-03-14T16:28:18;62.10;;;58.70;;
10884;SDS011;5495;53.252;10.390;2023-03-14T16:33:51;1999.90;;;999.90;;
10884;SDS011;5495;53.252;10.390;2023-03-14T16:43:20;3.40;;;0.80;;
10884;SDS011;5495;53.252;10.390;2023-03-14T16:45:51;2.57;;;0.90;;
10884;SDS011;5495;53.252;10.390;2023-03-14T16:52:19;0.93;;;0.67;;
10884;SDS011;5495;53.252;10.390;2023-03-14T17:01:40;4.77;;;0.63;;
10884;SDS011;5495;53.252;10.390;2023-03-14T17:04:55;4.53;;;0.83;;
10884;SDS011;5495;53.252;10.390;2023-03-14T17:15:25;12.00;;;11.10;;
10884;SDS011;5495;53.252;10.390;2023-03-14T17:18:46;2.07;;;0.60;;
10884;SDS011;5495;53.252;10.390;2023-03-14T17:21:18;3.00;;;0.73;;
10884;SDS011;5495;53.252;10.390;2023-03-14T17:24:30;225.40;;;200.83;;